Time;durP1;ratioP1;P1;durP2;ratioP2;P2;SDS_P1;SDS_P2;PMS_P1;PMS_P2;Temp;Humidity;BMP_temperature;BMP_pressure;BME280_temperature;BME280_humidity;BME280_pressure;Samples;Min_cycle;Max_cycle;Signal;HPM_P1;HPM_P2
2022/09/01 00:02:07;;;;;;;10.98;6.65;;;;;;;19.33;81.72;99182.78;6170747;23;20068;-92
2022/09/01 00:04:33;;;;;;;10.73;6.40;;;;;;;19.11;80.86;99154.66;6195604;23;20095;-91
2022/09/01 00:06:59;;;;;;;12.15;6.28;;;;;;;19.07;81.58;99144.72;6195335;23;20472;-91
2022/09/01 00:09:24;;;;;;;14.25;6.47;;;;;;;19.01;81.74;99144.13;6194856;23;19992;-91
2022/09/01 00:11:51;;;;;;;11.70;5.97;;;;;;;19.04;81.86;99162.56;6194617;23;20007;-92
2022/09/01 00:14:22;;;;;;;9.00;5.60;;;;;;;19.13;81.57;99159.75;6169830;23;20351;-91
2022/09/01 00:16:47;;;;;;;11.50;5.43;;;;;;;19.26;80.87;99158.72;6170363;23;19996;-92
2022/09/01 00:19:13;;;;;;;9.43;5.53;;;;;;;19.33;80.28;99139.09;6194463;23;20070;-92
2022/09/01 00:21:40;;;;;;;13.77;6.80;;;;;;;19.28;81.81;99151.00;6170138;23;20011;-92
2022/09/01 00:24:05;;;;;;;10.88;6.45;;;;;;;19.13;81.95;99144.22;6169990;23;20000;-91
2022/09/01 00:26:31;;;;;;;9.30;5.78;;;;;;;19.08;81.80;99138.94;6194721;23;20095;-91
2022/09/01 00:28:56;;;;;;;10.95;6.07;;;;;;;19.09;82.29;99150.63;6195282;23;20328;-92
2022/09/01 00:31:22;;;;;;;8.85;6.07;;;;;;;19.02;82.69;99150.38;6194892;23;20062;-90
2022/09/01 00:33:48;;;;;;;13.43;6.45;;;;;;;18.94;81.87;99150.06;6169424;23;20016;-90
2022/09/01 00:36:14;;;;;;;11.55;6.60;;;;;;;18.89;82.92;99150.28;6169955;23;20003;-91
2022/09/01 00:38:39;;;;;;;10.23;6.78;;;;;;;18.86;82.90;99147.41;6195039;23;20008;-91
2022/09/01 00:41:06;;;;;;;14.63;6.22;;;;;;;18.87;82.52;99144.34;6194963;23;20000;-91
2022/09/01 00:43:40;;;;;;;11.07;5.70;;;;;;;18.92;82.61;99159.72;6194808;23;20028;-91
2022/09/01 00:46:07;;;;;;;9.90;6.40;;;;;;;18.65;82.70;99139.13;6220255;23;19999;-91
2022/09/01 00:48:33;;;;;;;12.38;6.57;;;;;;;18.74;82.50;99146.16;6194846;23;19996;-91
2022/09/01 00:50:59;;;;;;;9.52;6.22;;;;;;;18.66;83.40;99133.38;6169460;23;20065;-92
2022/09/01 00:53:25;;;;;;;9.02;6.95;;;;;;;18.67;84.03;99145.84;6194424;23;20019;-92
2022/09/01 00:55:50;;;;;;;10.70;6.80;;;;;;;18.62;83.75;99142.53;6170083;23;20413;-92
2022/09/01 00:58:15;;;;;;;11.07;7.00;;;;;;;18.63;83.36;99134.00;6194824;23;20347;-91
2022/09/01 01:00:41;;;;;;;15.40;7.10;;;;;;;18.73;82.98;99141.03;6169899;23;20426;-91
2022/09/01 01:03:08;;;;;;;10.15;6.43;;;;;;;18.63;82.99;99138.66;6170370;23;20427;-92
2022/09/01 01:05:45;;;;;;;8.60;6.28;;;;;;;18.64;82.33;99146.53;6170973;23;20004;-91
2022/09/01 01:08:12;;;;;;;9.13;6.47;;;;;;;18.47;82.98;99130.22;6195371;23;20428;-91
2022/09/01 01:10:40;;;;;;;11.52;6.50;;;;;;;18.46;82.80;99134.88;6194607;23;20347;-91
2022/09/01 01:13:12;;;;;;;10.63;6.97;;;;;;;18.40;83.98;99146.28;6169501;23;20057;-92
2022/09/01 01:15:42;;;;;;;11.95;6.45;;;;;;;18.36;83.66;99129.78;6220362;23;20441;-90
2022/09/01 01:18:10;;;;;;;14.75;6.85;;;;;;;18.34;83.69;99132.03;6195261;23;19996;-91
2022/09/01 01:23:39;;;;;;;11.35;6.80;;;;;;;18.45;83.49;99143.38;6202251;23;20122;-91
2022/09/01 01:26:06;;;;;;;9.93;7.05;;;;;;;18.32;83.63;99126.09;6219694;23;20049;-91
2022/09/01 01:28:37;;;;;;;10.63;6.47;;;;;;;18.37;83.06;99140.38;6194175;23;19996;-91
2022/09/01 01:31:11;;;;;;;15.40;7.23;;;;;;;18.29;83.33;99133.03;6218828;23;20020;-93
2022/09/01 01:33:58;;;;;;;11.02;6.57;;;;;;;18.25;83.18;99123.88;6195990;23;20074;-91
2022/09/01 01:36:31;;;;;;;11.20;6.35;;;;;;;18.35;83.86;99139.91;6245561;23;20004;-91
2022/09/01 01:39:00;;;;;;;12.05;6.90;;;;;;;18.21;83.55;99125.66;6244567;23;20004;-92
2022/09/01 01:41:28;;;;;;;12.05;7.20;;;;;;;18.26;84.35;99136.41;6220151;23;20063;-91
2022/09/01 01:43:57;;;;;;;16.23;7.18;;;;;;;18.31;83.51;99138.94;6167274;23;20059;-91
2022/09/01 01:46:24;;;;;;;10.73;7.05;;;;;;;18.32;83.87;99135.09;6219437;23;20004;-90
2022/09/01 01:48:51;;;;;;;12.15;6.95;;;;;;;18.50;83.52;99145.94;6195595;23;20058;-92
2022/09/01 01:51:18;;;;;;;11.70;7.32;;;;;;;18.37;83.86;99145.81;6194502;23;20011;-91
2022/09/01 01:53:51;;;;;;;10.43;6.68;;;;;;;18.28;84.16;99144.25;6220036;23;20019;-91
2022/09/01 01:56:18;;;;;;;11.75;6.55;;;;;;;18.33;83.75;99155.78;6220048;23;20000;-91
2022/09/01 01:58:45;;;;;;;10.93;6.65;;;;;;;18.23;83.60;99137.03;6193383;23;20032;-91
2022/09/01 02:01:11;;;;;;;13.30;6.50;;;;;;;18.27;83.61;99143.44;6194619;23;20054;-91
2022/09/01 02:03:38;;;;;;;12.02;6.20;;;;;;;18.32;83.03;99142.47;6219301;23;20066;-92
2022/09/01 02:06:08;;;;;;;10.82;7.10;;;;;;;18.38;83.00;99143.88;6194494;23;20328;-91
2022/09/01 02:08:36;;;;;;;8.82;6.47;;;;;;;18.32;82.88;99132.38;6168982;23;20324;-91
2022/09/01 02:11:04;;;;;;;13.50;6.53;;;;;;;18.28;82.88;99138.78;6216928;23;20024;-90
2022/09/01 02:13:33;;;;;;;15.55;7.03;;;;;;;18.18;83.95;99135.31;6218988;23;20023;-91
2022/09/01 02:16:06;;;;;;;12.23;6.53;;;;;;;18.20;83.92;99143.16;6221213;23;20415;-91
2022/09/01 02:18:34;;;;;;;7.75;6.68;;;;;;;18.13;83.66;99135.47;6194171;23;20004;-90
2022/09/01 02:21:01;;;;;;;10.15;6.10;;;;;;;18.32;83.39;99145.19;6193916;23;20000;-91
2022/09/01 02:23:28;;;;;;;9.40;6.32;;;;;;;18.34;82.40;99137.47;6169132;23;20004;-91
2022/09/01 02:25:59;;;;;;;9.20;6.25;;;;;;;18.33;82.59;99133.19;6218470;23;20034;-91
2022/09/01 02:28:30;;;;;;;;;;;;;;;18.29;82.97;99151.31;6195936;23;20007;-91
2022/09/01 02:30:58;;;;;;;12.23;6.13;;;;;;;18.18;83.26;99150.84;6219610;23;19903;-91
2022/09/01 02:33:33;;;;;;;10.07;6.95;;;;;;;17.98;83.22;99141.44;6220544;23;20028;-91
2022/09/01 02:36:01;;;;;;;10.63;7.28;;;;;;;17.90;83.46;99144.97;6196473;23;20008;-91
2022/09/01 02:38:28;;;;;;;8.65;6.43;;;;;;;17.84;83.88;99133.44;6196403;23;20004;-91
2022/09/01 02:40:56;;;;;;;8.63;5.82;;;;;;;17.96;84.10;99147.19;6196074;23;19996;-91
2022/09/01 02:43:27;;;;;;;10.18;6.45;;;;;;;17.78;83.75;99130.06;6222028;23;20493;-91
2022/09/01 02:45:54;;;;;;;16.95;6.47;;;;;;;17.81;84.22;99130.53;6221390;23;20000;-91
2022/09/01 02:48:50;;;;;;;8.93;6.55;;;;;;;17.87;84.86;99145.63;6195588;23;20062;-90
2022/09/01 02:51:18;;;;;;;11.70;6.70;;;;;;;17.88;83.93;99133.59;6183956;23;20000;-91
2022/09/01 02:53:46;;;;;;;9.90;6.47;;;;;;;18.00;83.53;99133.75;6111451;23;20005;-91
2022/09/01 02:56:12;;;;;;;11.77;7.90;;;;;;;17.99;83.37;99132.13;6112034;23;20008;-92
2022/09/01 02:58:44;;;;;;;9.85;6.05;;;;;;;18.00;83.25;99135.66;6134604;23;20009;-90
2022/09/01 03:01:14;;;;;;;9.98;6.10;;;;;;;17.91;83.09;99136.47;6136973;23;20000;-91
2022/09/01 03:03:43;;;;;;;8.85;6.10;;;;;;;17.95;82.39;99137.44;6137136;23;20051;-92
2022/09/01 03:06:11;;;;;;;8.60;5.53;;;;;;;17.88;82.35;99131.66;6134898;23;20079;-92
2022/09/01 03:08:38;;;;;;;10.60;6.32;;;;;;;18.07;82.10;99139.47;6184449;23;19996;-91
2022/09/01 03:11:09;;;;;;;8.90;6.10;;;;;;;18.19;81.60;99166.06;6111180;23;20001;-91
2022/09/01 03:13:35;;;;;;;9.43;6.15;;;;;;;18.04;82.02;99142.88;6160393;23;20027;-91
2022/09/01 03:16:02;;;;;;;9.30;5.97;;;;;;;18.22;82.06;99159.16;6110632;23;20012;-91
2022/09/01 03:18:28;;;;;;;9.25;5.70;;;;;;;18.27;81.73;99175.34;6160365;23;20421;-90
2022/09/01 03:20:55;;;;;;;9.63;6.18;;;;;;;18.14;82.47;99167.06;6134795;23;20011;-91
2022/09/01 03:23:24;;;;;;;13.70;6.53;;;;;;;18.07;82.70;99163.22;6194079;23;20000;-91
2022/09/01 03:25:50;;;;;;;10.77;6.38;;;;;;;18.13;82.41;99154.53;6197294;23;20012;-90
2022/09/01 03:28:16;;;;;;;7.85;5.43;;;;;;;18.27;81.24;99150.84;6195918;23;20382;-91
2022/09/01 03:30:50;;;;;;;8.68;5.68;;;;;;;18.23;81.86;99156.13;6220135;23;20078;-91
2022/09/01 03:33:17;;;;;;;7.22;5.63;;;;;;;18.23;81.46;99163.50;6190289;23;20479;-90
2022/09/01 03:35:43;;;;;;;9.57;6.00;;;;;;;18.13;82.65;99156.47;6190156;23;20443;-90
2022/09/01 03:38:11;;;;;;;10.32;7.00;;;;;;;17.95;82.89;99150.25;6164940;23;20008;-90
2022/09/01 03:41:06;;;;;;;12.98;6.50;;;;;;;18.04;83.10;99161.94;6165553;23;20383;-91
2022/09/01 03:43:32;;;;;;;9.15;5.90;;;;;;;17.88;83.03;99144.50;6165629;23;20083;-90
2022/09/01 03:49:05;;;;;;;9.93;6.05;;;;;;;17.57;84.11;99143.50;6106415;23;20008;-90
2022/09/01 03:51:32;;;;;;;11.23;6.38;;;;;;;17.45;83.89;99157.00;6102346;23;20405;-89
2022/09/01 03:53:58;;;;;;;11.02;6.90;;;;;;;17.38;84.71;99151.19;6124843;23;20009;-90
2022/09/01 03:56:26;;;;;;;10.38;6.57;;;;;;;17.34;85.22;99151.03;6073585;23;20002;-91
2022/09/01 03:58:53;;;;;;;9.98;6.70;;;;;;;17.28;84.73;99156.94;6102008;23;20010;-95
2022/09/01 04:01:19;;;;;;;13.15;7.40;;;;;;;17.32;84.76;99161.44;6104290;23;20006;-93
2022/09/01 04:03:50;;;;;;;8.88;6.50;;;;;;;17.35;84.19;99154.56;6101268;23;20010;-89
2022/09/01 04:06:19;;;;;;;9.35;6.28;;;;;;;17.45;84.54;99165.16;6101343;23;20037;-95
2022/09/01 04:08:45;;;;;;;10.77;6.10;;;;;;;17.29;84.48;99139.53;6103885;23;19986;-94
2022/09/01 04:11:22;;;;;;;15.10;6.78;;;;;;;17.30;84.62;99152.78;6103574;23;20068;-94
2022/09/01 04:13:49;;;;;;;10.75;7.38;;;;;;;17.27;85.69;99156.16;6180729;23;20071;-94
2022/09/01 04:19:18;;;;;;;;;;;;;;;17.40;85.04;99181.63;6180062;23;20088;-93
2022/09/01 04:21:46;;;;;;;9.43;6.93;;;;;;;17.29;85.06;99156.63;6193858;23;19948;-94
2022/09/01 04:24:14;;;;;;;11.00;6.90;;;;;;;17.41;84.95;99166.09;6215167;23;20001;-94
2022/09/01 04:26:46;;;;;;;13.10;6.60;;;;;;;17.44;84.35;99160.81;6191925;23;20013;-94
2022/09/01 04:29:18;;;;;;;9.75;6.53;;;;;;;17.52;83.83;99164.66;6219124;23;20004;-95
2022/09/01 04:31:44;;;;;;;12.30;6.43;;;;;;;17.55;84.40;99177.63;6170078;23;20007;-95
2022/09/01 04:34:12;;;;;;;9.50;6.53;;;;;;;17.49;84.03;99168.00;6189318;23;20024;-94
2022/09/01 04:36:45;;;;;;;9.23;6.47;;;;;;;17.40;83.78;99153.63;6201259;23;20020;-94
2022/09/01 04:39:14;;;;;;;11.35;6.85;;;;;;;17.48;84.40;99174.59;6222316;23;20004;-94
2022/09/01 04:41:44;;;;;;;10.75;7.47;;;;;;;17.45;84.55;99165.16;6228936;23;20083;-94
2022/09/01 04:44:10;;;;;;;12.90;8.05;;;;;;;17.41;84.87;99156.03;6177461;23;20061;-94
2022/09/01 04:46:38;;;;;;;14.50;8.23;;;;;;;17.33;84.70;99140.47;6200661;23;19984;-94
2022/09/01 04:49:08;;;;;;;20.13;9.90;;;;;;;17.52;84.03;99151.84;6203503;23;19984;-94
2022/09/01 04:51:37;;;;;;;11.93;6.95;;;;;;;17.57;84.20;99145.44;6225421;23;19996;-95
2022/09/01 04:54:10;;;;;;;11.65;6.78;;;;;;;17.70;83.71;99143.66;6199035;23;20418;-93
2022/09/01 04:56:36;;;;;;;10.23;6.35;;;;;;;17.71;83.56;99158.91;6200368;23;20031;-94
2022/09/01 04:59:06;;;;;;;12.73;7.20;;;;;;;17.74;83.94;99156.34;6199670;23;20007;-96
2022/09/01 05:01:42;;;;;;;11.43;6.82;;;;;;;17.85;83.80;99158.78;6225169;23;20000;-94
2022/09/01 05:04:11;;;;;;;10.18;6.78;;;;;;;17.94;82.92;99156.81;6205759;23;20478;-94
2022/09/01 05:06:40;;;;;;;11.13;6.63;;;;;;;17.94;82.35;99151.38;6251143;23;20024;-94
2022/09/01 05:09:09;;;;;;;10.82;7.25;;;;;;;18.06;81.18;99143.34;6175843;23;20083;-94
2022/09/01 05:11:37;;;;;;;10.70;6.32;;;;;;;18.35;80.50;99178.06;6173877;23;19996;-94
2022/09/01 05:14:05;;;;;;;11.35;6.95;;;;;;;18.48;80.77;99186.38;6224276;23;20062;-93
2022/09/01 05:16:32;;;;;;;14.13;10.32;;;;;;;18.38;81.45;99171.16;6229085;23;20024;-93
2022/09/01 05:19:01;;;;;;;11.60;7.25;;;;;;;18.63;79.13;99152.28;6200704;23;20039;-92
2022/09/01 05:21:28;;;;;;;16.60;6.35;;;;;;;18.77;78.53;99161.06;6199039;23;20390;-94
2022/09/01 05:23:59;;;;;;;10.27;6.40;;;;;;;18.86;78.59;99155.59;6198729;23;20050;-93
2022/09/01 05:26:30;;;;;;;11.05;6.18;;;;;;;19.01;78.53;99182.31;6196834;23;20004;-94
2022/09/01 05:29:14;;;;;;;8.50;5.97;;;;;;;18.79;79.01;99161.56;6204791;23;19996;-95
2022/09/01 05:31:40;;;;;;;13.95;6.55;;;;;;;18.89;79.34;99163.13;6198978;23;20000;-92
2022/09/01 05:34:08;;;;;;;10.38;6.10;;;;;;;18.97;78.22;99162.28;6174792;23;20024;-91
2022/09/01 05:36:35;;;;;;;13.77;5.85;;;;;;;19.09;77.78;99164.28;6166514;23;20012;-91
2022/09/01 05:39:11;;;;;;;13.88;7.30;;;;;;;19.13;78.74;99165.22;6192316;23;20074;-95
2022/09/01 05:41:39;;;;;;;11.50;7.05;;;;;;;19.00;79.03;99144.44;6170068;23;20005;-93
2022/09/01 05:44:07;;;;;;;11.65;7.30;;;;;;;19.03;78.05;99136.41;6167706;23;20015;-95
2022/09/01 05:46:34;;;;;;;13.82;7.68;;;;;;;19.22;78.09;99146.88;6196225;23;20023;-95
2022/09/01 05:49:01;;;;;;;13.30;8.02;;;;;;;19.28;78.30;99163.84;6191515;23;20091;-94
2022/09/01 05:51:28;;;;;;;16.73;9.45;;;;;;;19.28;78.18;99142.00;6190841;23;20027;-96
2022/09/01 05:53:57;;;;;;;13.40;8.20;;;;;;;19.42;77.39;99155.41;6163994;23;20383;-91
2022/09/01 05:56:27;;;;;;;11.80;6.88;;;;;;;19.38;77.09;99149.78;6165706;23;20024;-92
2022/09/01 05:58:56;;;;;;;12.73;7.68;;;;;;;19.51;77.43;99170.59;6167591;23;20020;-92
2022/09/01 06:01:25;;;;;;;17.70;11.45;;;;;;;19.52;76.54;99158.53;6166405;23;20001;-93
2022/09/01 06:03:53;;;;;;;18.13;7.00;;;;;;;19.54;77.00;99150.78;6167539;23;20352;-92
2022/09/01 06:06:44;;;;;;;15.00;6.78;;;;;;;19.69;77.22;99162.25;6192258;23;20064;-90
2022/09/01 06:09:10;;;;;;;7.10;5.50;;;;;;;19.59;76.74;99139.69;6167633;23;20023;-95
2022/09/01 06:11:36;;;;;;;10.98;5.90;;;;;;;19.76;76.78;99148.91;6194500;23;20003;-93
2022/09/01 06:14:03;;;;;;;9.23;6.10;;;;;;;19.69;76.19;99135.72;6168534;23;20365;-91
2022/09/01 06:16:29;;;;;;;12.77;5.93;;;;;;;19.81;76.10;99150.63;6166701;23;20063;-90
2022/09/01 06:18:58;;;;;;;11.85;5.88;;;;;;;19.86;75.43;99156.69;6141789;23;20443;-92
2022/09/01 06:21:27;;;;;;;14.25;5.80;;;;;;;19.90;75.54;99143.13;6168484;23;20361;-91
2022/09/01 06:23:53;;;;;;;8.73;5.97;;;;;;;20.07;75.05;99170.31;6167099;23;20036;-92
2022/09/01 06:26:25;;;;;;;9.45;5.78;;;;;;;20.04;74.64;99153.78;6166702;23;19997;-92
2022/09/01 06:28:53;;;;;;;8.98;5.95;;;;;;;20.29;74.92;99182.75;6166320;23;20003;-93
2022/09/01 06:31:23;;;;;;;10.07;5.80;;;;;;;20.30;73.79;99170.72;6166743;23;20009;-90
2022/09/01 06:33:53;;;;;;;10.32;5.78;;;;;;;20.23;74.40;99156.78;6176938;23;20028;-90
2022/09/01 06:36:22;;;;;;;14.00;6.38;;;;;;;20.32;74.73;99157.50;6165720;23;20001;-90
2022/09/01 06:38:50;;;;;;;11.85;5.68;;;;;;;20.50;73.85;99163.56;6190445;23;20009;-91
2022/09/01 06:41:20;;;;;;;10.60;6.80;;;;;;;20.67;73.35;99167.25;6165715;23;20502;-95
2022/09/01 06:43:49;;;;;;;12.07;5.35;;;;;;;20.79;72.89;99153.56;6143355;23;20067;-92
2022/09/01 06:46:16;;;;;;;9.55;5.85;;;;;;;20.97;72.06;99173.31;6191206;23;19996;-92
2022/09/01 06:48:45;;;;;;;18.45;11.80;;;;;;;21.02;72.07;99153.91;6166239;23;20003;-92
2022/09/01 06:51:30;;;;;;;41.42;27.80;;;;;;;21.06;71.91;99149.34;6191468;23;20000;-93
2022/09/01 06:53:58;;;;;;;9.88;5.10;;;;;;;21.14;71.22;99164.84;6191176;23;20026;-88
2022/09/01 06:56:30;;;;;;;11.10;6.13;;;;;;;21.24;71.52;99165.53;6168661;23;20024;-91
2022/09/01 06:58:55;;;;;;;10.27;5.72;;;;;;;21.31;71.00;99163.00;6169288;23;20005;-90
2022/09/01 07:01:22;;;;;;;11.25;5.55;;;;;;;21.31;70.98;99139.16;6166643;23;20000;-90
2022/09/01 07:03:50;;;;;;;12.10;7.22;;;;;;;21.47;71.12;99160.38;6167209;23;20075;-93
2022/09/01 07:06:18;;;;;;;12.70;6.63;;;;;;;21.47;70.54;99161.16;6192894;23;20062;-92
2022/09/01 07:08:48;;;;;;;7.45;4.95;;;;;;;21.69;68.69;99157.09;6192218;23;20427;-93
2022/09/01 07:11:22;;;;;;;7.28;5.22;;;;;;;21.72;68.38;99155.59;6166948;23;20001;-88
2022/09/01 07:13:49;;;;;;;9.13;5.75;;;;;;;21.94;68.10;99162.50;6142045;23;20128;-88
2022/09/01 07:16:22;;;;;;;8.88;5.20;;;;;;;22.17;67.61;99163.50;6166366;23;20098;-93
2022/09/01 07:19:00;;;;;;;9.80;5.55;;;;;;;22.30;66.93;99158.78;6168217;23;20008;-93
2022/09/01 07:21:29;;;;;;;9.20;5.18;;;;;;;22.37;68.01;99171.88;6141545;23;20016;-90
2022/09/01 07:24:00;;;;;;;10.32;5.93;;;;;;;22.39;67.19;99162.16;6168668;23;20048;-92
2022/09/01 07:26:26;;;;;;;11.13;5.70;;;;;;;22.64;66.17;99172.97;6167606;23;20443;-93
2022/09/01 07:28:52;;;;;;;9.23;5.68;;;;;;;22.76;65.30;99161.09;6165896;23;20000;-93
2022/09/01 07:31:22;;;;;;;10.38;6.00;;;;;;;22.69;65.36;99136.22;6165800;23;20032;-92
2022/09/01 07:33:50;;;;;;;8.90;6.28;;;;;;;22.84;65.07;99140.09;6182281;23;20082;-92
2022/09/01 07:36:17;;;;;;;5.93;4.85;;;;;;;23.01;64.05;99158.97;6218801;23;20031;-89
2022/09/01 07:38:44;;;;;;;13.65;9.63;;;;;;;23.12;63.65;99153.75;6194124;23;20079;-88
2022/09/01 07:41:12;;;;;;;10.15;6.22;;;;;;;23.11;64.54;99166.66;6194672;23;20083;-89
2022/09/01 07:43:40;;;;;;;9.88;5.68;;;;;;;23.22;64.46;99166.09;6194692;23;20419;-89
2022/09/01 07:46:06;;;;;;;21.50;15.10;;;;;;;23.16;64.33;99166.38;6194727;23;20004;-89
2022/09/01 07:48:32;;;;;;;8.32;6.20;;;;;;;23.29;64.91;99156.06;6177697;23;20003;-96
2022/09/01 07:50:58;;;;;;;11.43;6.55;;;;;;;23.32;64.51;99130.63;6225992;23;20000;-96
2022/09/01 07:53:31;;;;;;;11.45;9.30;;;;;;;23.52;63.48;99138.88;6199518;23;19999;-95
2022/09/01 07:59:28;;;;;;;;;;;;;;;23.82;63.48;99147.38;6264496;22;20019;-96
2022/09/01 08:02:04;;;;;;;8.65;5.95;;;;;;;23.81;63.01;99121.03;6264642;23;19927;-96
2022/09/01 08:04:33;;;;;;;7.75;5.00;;;;;;;23.72;61.89;99128.66;6186347;23;20008;-93
2022/09/01 08:07:04;;;;;;;8.50;5.20;;;;;;;23.93;61.46;99139.34;6206346;23;20000;-96
2022/09/01 08:09:39;;;;;;;8.35;5.10;;;;;;;23.77;61.47;99123.72;6231573;23;20427;-96
2022/09/01 08:12:10;;;;;;;8.60;5.30;;;;;;;23.86;61.91;99145.47;6198657;23;20007;-92
2022/09/01 08:14:36;;;;;;;7.97;4.97;;;;;;;23.91;62.10;99120.44;6193840;23;20090;-93
2022/09/01 08:17:04;;;;;;;11.68;5.38;;;;;;;23.94;61.20;99125.22;6220050;23;20480;-92
2022/09/01 08:19:33;;;;;;;11.05;4.82;;;;;;;23.98;60.46;99122.53;6196107;23;20004;-93
2022/09/01 08:21:58;;;;;;;10.45;5.57;;;;;;;23.98;61.06;99117.81;6221164;23;20011;-96
2022/09/01 08:24:31;;;;;;;8.88;5.65;;;;;;;24.03;61.65;99122.25;6171317;23;20000;-95
2022/09/01 08:26:58;;;;;;;7.85;4.80;;;;;;;24.23;60.53;99134.00;6199101;23;20000;-96
2022/09/01 08:29:24;;;;;;;7.13;5.32;;;;;;;24.10;60.31;99108.63;6198478;23;20016;-95
2022/09/01 08:31:49;;;;;;;8.20;5.53;;;;;;;23.95;60.58;99129.56;6194309;23;20011;-94
2022/09/01 08:34:18;;;;;;;7.80;5.32;;;;;;;24.04;60.27;99115.56;6191117;23;20016;-95
2022/09/01 08:36:45;;;;;;;7.97;5.72;;;;;;;24.24;59.44;99105.31;6190963;23;20012;-93
2022/09/01 08:39:11;;;;;;;6.28;4.53;;;;;;;24.50;59.35;99137.63;6190593;23;20008;-91
2022/09/01 08:41:45;;;;;;;10.38;4.75;;;;;;;24.58;58.27;99133.81;6216290;23;20005;-93
2022/09/01 08:44:10;;;;;;;11.32;5.22;;;;;;;24.65;58.54;99126.84;6211750;23;20351;-92
2022/09/01 08:46:43;;;;;;;6.65;4.47;;;;;;;24.40;57.32;99113.44;6219707;23;20007;-94
2022/09/01 08:49:21;;;;;;;6.18;4.05;;;;;;;24.67;56.05;99096.97;6194127;23;20471;-93
2022/09/01 08:51:53;;;;;;;9.55;4.45;;;;;;;24.45;57.58;99098.59;6167489;23;20019;-93
2022/09/01 08:54:31;;;;;;;6.65;4.57;;;;;;;24.66;57.99;99111.94;6163686;23;20494;-89
2022/09/01 08:57:09;;;;;;;12.00;6.55;;;;;;;24.81;56.23;99106.25;6191907;23;20004;-89
2022/09/01 08:59:39;;;;;;;8.80;5.10;;;;;;;24.89;55.25;99098.91;6168350;23;20058;-89
2022/09/01 09:02:18;;;;;;;12.88;6.13;;;;;;;25.16;54.10;99107.94;6188518;23;20509;-93
2022/09/01 09:04:50;;;;;;;6.78;4.15;;;;;;;25.36;53.35;99100.34;6218306;23;20024;-94
2022/09/01 09:07:24;;;;;;;8.45;4.85;;;;;;;25.43;52.78;99094.13;6190706;23;20348;-94
2022/09/01 09:09:58;;;;;;;9.73;6.65;;;;;;;25.55;52.45;99090.34;6169456;23;20063;-94
2022/09/01 09:12:51;;;;;;;5.97;3.92;;;;;;;25.86;51.72;99102.09;6165685;23;20001;-96
2022/09/01 09:15:48;;;;;;;5.22;3.90;;;;;;;25.92;51.37;99075.78;6190547;23;20076;-92
2022/09/01 09:18:59;;;;;;;5.53;3.85;;;;;;;26.01;50.83;99090.06;6177861;23;20020;-94
2022/09/01 09:21:33;;;;;;;8.90;4.43;;;;;;;25.93;50.74;99077.38;6166310;23;20012;-93
2022/09/01 09:24:22;;;;;;;8.30;5.85;;;;;;;26.14;50.12;99088.59;6166371;23;20004;-94
2022/09/01 09:27:01;;;;;;;8.93;5.15;;;;;;;26.06;49.26;99061.31;6174066;23;20000;-93
2022/09/01 09:29:27;;;;;;;7.85;4.30;;;;;;;26.14;49.72;99061.00;6191337;23;19997;-93
2022/09/01 09:32:50;;;;;;;6.88;4.05;;;;;;;26.28;49.16;99065.88;6139145;23;20439;-94
2022/09/01 09:35:47;;;;;;;9.27;4.00;;;;;;;26.45;48.29;99066.38;6101010;23;20014;-92
2022/09/01 09:38:31;;;;;;;6.43;4.15;;;;;;;26.65;48.30;99078.81;6077460;23;20500;-93
2022/09/01 09:40:58;;;;;;;6.80;3.47;;;;;;;26.54;47.79;99069.59;6080225;23;20002;-94
2022/09/01 09:43:24;;;;;;;7.88;4.50;;;;;;;26.46;47.70;99040.34;6077229;23;20381;-93
2022/09/01 09:45:53;;;;;;;8.32;4.15;;;;;;;26.49;46.92;99037.63;6075990;23;20010;-93
2022/09/01 09:48:36;;;;;;;6.57;3.60;;;;;;;26.45;46.91;99036.03;6076380;23;20030;-93
2022/09/01 09:51:19;;;;;;;10.13;5.03;;;;;;;26.67;47.12;99051.59;6054284;23;20061;-94
2022/09/01 09:53:55;;;;;;;9.93;4.65;;;;;;;26.73;47.77;99029.91;6076379;23;20008;-94
2022/09/01 09:56:35;;;;;;;7.03;4.43;;;;;;;26.73;47.25;99019.66;6063454;23;20030;-96
2022/09/01 09:59:03;;;;;;;5.30;3.47;;;;;;;26.86;45.44;99038.69;6099871;23;20002;-91
2022/09/01 10:01:32;;;;;;;7.43;3.30;;;;;;;26.86;44.98;99033.16;6074920;23;20045;-92
2022/09/01 10:05:05;;;;;;;5.70;3.53;;;;;;;26.88;45.83;99011.47;6087991;23;20002;-96
2022/09/01 10:14:33;;;;;;;10.45;4.03;;;;;;;27.10;45.94;99024.19;6106325;22;20032;-95
2022/09/01 10:17:49;;;;;;;5.82;3.20;;;;;;;27.24;45.30;99031.75;6146824;23;20025;-95
2022/09/01 10:23:03;;;;;;;7.95;3.55;;;;;;;26.92;45.75;99012.25;6250180;22;20028;-95
2022/09/01 10:25:32;;;;;;;7.28;3.47;;;;;;;27.07;44.81;99004.81;6200272;23;20008;-93
2022/09/01 10:28:09;;;;;;;10.18;3.58;;;;;;;27.19;44.30;99007.25;6241474;23;20019;-96
2022/09/01 10:30:41;;;;;;;6.20;3.30;;;;;;;27.13;43.37;99009.59;6230587;23;19992;-95
2022/09/01 10:33:25;;;;;;;6.68;3.78;;;;;;;27.28;44.72;99017.97;6192532;23;20007;-96
2022/09/01 10:36:07;;;;;;;;;;;;;;;;;;;;;
2022/09/01 10:38:40;;;;;;;4.53;3.17;;;;;;;27.31;42.56;98992.28;6204341;23;20004;-95
2022/09/01 10:41:56;;;;;;;7.20;3.70;;;;;;;27.54;43.28;99009.34;6197704;23;19996;-94
2022/09/01 10:45:02;;;;;;;7.57;3.38;;;;;;;27.27;44.50;98984.00;6231809;23;20026;-94
2022/09/01 10:50:53;;;;;;;;;;;;;;;27.63;42.49;99008.19;6263063;23;20016;-91
2022/09/01 10:53:34;;;;;;;7.90;3.15;;;;;;;27.51;42.32;99001.81;6220438;23;19931;-92
2022/09/01 10:56:21;;;;;;;7.50;3.45;;;;;;;27.57;42.98;99005.78;6221288;23;20403;-95
2022/09/01 10:59:05;;;;;;;6.53;3.20;;;;;;;27.66;42.68;98996.31;6222753;23;20012;-94
2022/09/01 11:04:34;;;;;;;5.43;3.08;;;;;;;27.84;40.51;98991.59;6227340;23;20004;-91
2022/09/01 11:07:00;;;;;;;4.35;2.75;;;;;;;27.88;40.58;98963.97;6253085;23;20014;-93
2022/09/01 11:09:33;;;;;;;4.97;3.20;;;;;;;27.96;40.68;98979.38;6175998;23;20437;-91
2022/09/01 11:12:20;;;;;;;5.45;3.25;;;;;;;28.02;40.85;98983.34;6196413;23;20083;-94
2022/09/01 11:14:59;;;;;;;4.93;3.40;;;;;;;28.02;40.62;98955.66;6223832;23;19996;-93
2022/09/01 11:17:52;;;;;;;12.35;7.80;;;;;;;27.91;39.85;98952.91;6225369;23;20028;-91
2022/09/01 11:20:25;;;;;;;17.48;11.27;;;;;;;28.20;40.01;98961.97;6203275;23;20347;-94
2022/09/01 11:23:11;;;;;;;10.30;7.28;;;;;;;28.24;40.14;98967.47;6197801;23;20447;-94
2022/09/01 11:25:42;;;;;;;10.20;7.68;;;;;;;28.45;39.77;98963.88;6200341;23;20012;-95
2022/09/01 11:31:18;;;;;;;10.18;3.20;;;;;;;28.48;39.69;98954.78;6186998;23;19939;-93
2022/09/01 11:34:22;;;;;;;;;;;;;;;;;;;;;
2022/09/01 11:37:18;;;;;;;7.00;3.00;;;;;;;28.66;39.58;98945.66;6261289;22;20022;-96
2022/09/01 11:46:37;;;;;;;6.82;2.58;;;;;;;28.69;36.43;98936.56;6074902;23;20018;-95
2022/09/01 11:49:19;;;;;;;3.60;2.47;;;;;;;28.67;37.68;98923.09;6163884;23;20212;-96
2022/09/01 11:51:48;;;;;;;4.32;3.08;;;;;;;28.71;37.56;98932.19;6166454;23;20107;-96
2022/09/01 11:54:14;;;;;;;4.43;2.83;;;;;;;28.57;36.59;98921.94;6144697;23;20416;-96
2022/09/01 11:56:43;;;;;;;5.25;2.60;;;;;;;28.60;36.97;98929.47;6174604;23;20080;-96
2022/09/01 11:59:11;;;;;;;3.80;2.35;;;;;;;28.60;35.52;98910.06;6164556;23;20448;-96
2022/09/01 12:01:40;;;;;;;5.05;2.50;;;;;;;28.74;35.26;98916.72;6162424;23;20001;-96
2022/09/01 12:04:22;;;;;;;5.10;2.53;;;;;;;28.87;36.12;98920.66;6196653;23;20071;-95
2022/09/01 12:06:51;;;;;;;5.90;2.60;;;;;;;28.93;35.83;98907.94;6144192;23;20021;-95
2022/09/01 12:09:17;;;;;;;17.17;10.35;;;;;;;28.97;34.64;98914.25;6141749;23;20067;-94
2022/09/01 12:11:42;;;;;;;6.75;3.42;;;;;;;28.99;34.73;98897.19;6141993;23;20005;-95
2022/09/01 12:14:19;;;;;;;;;;;;;;;;;;;;;
2022/09/01 12:17:03;;;;;;;4.95;2.90;;;;;;;29.19;34.38;98903.84;6212708;23;20000;-94
2022/09/01 12:22:22;;;;;;;7.78;2.75;;;;;;;29.06;34.29;98897.19;6194897;22;20099;-95
2022/09/01 12:24:50;;;;;;;3.75;1.98;;;;;;;29.05;33.56;98906.66;6167729;23;20406;-95
2022/09/01 12:27:16;;;;;;;4.93;2.13;;;;;;;29.03;33.09;98895.19;6169295;23;20023;-95
2022/09/01 12:29:44;;;;;;;5.00;2.50;;;;;;;28.96;33.35;98884.16;6170385;23;20008;-93
2022/09/01 12:32:13;;;;;;;5.80;2.63;;;;;;;29.30;34.15;98911.31;6170729;23;20000;-94
2022/09/01 12:34:58;;;;;;;5.05;2.63;;;;;;;29.30;34.18;98895.47;6173360;23;20074;-95
2022/09/01 12:37:26;;;;;;;4.30;2.72;;;;;;;29.27;33.54;98882.41;6176754;23;20297;-96